createdAt,value
2018-11-21T00:00:18.050Z,143228.09
2018-11-21T00:02:47.412Z,143244.23
2018-11-21T00:05:16.546Z,143335.02
2018-11-21T00:07:45.661Z,143265.39
2018-11-21T00:10:14.656Z,143165.94
2018-11-21T00:12:54.756Z,143155.98
2018-11-21T00:15:23.806Z,143248.00
2018-11-21T00:17:52.801Z,143198.25
2018-11-21T00:20:22.004Z,143260.41
2018-11-21T00:22:51.006Z,143238.05
2018-11-21T00:25:20.092Z,143218.14
2018-11-21T00:27:49.171Z,143204.48
2018-11-21T00:30:18.177Z,143143.53
2018-11-21T00:32:47.329Z,143264.13
2018-11-21T00:35:16.467Z,143213.17
2018-11-21T00:37:45.471Z,143158.50
2018-11-21T00:40:15.520Z,143214.44
2018-11-21T00:42:46.960Z,143244.23
2018-11-21T00:45:13.696Z,143206.94
2018-11-21T00:47:42.675Z,143250.47
2018-11-21T00:50:12.119Z,143209.45
2018-11-21T00:52:41.227Z,143213.17
2018-11-21T00:55:10.260Z,143225.59
2018-11-21T00:57:39.266Z,143336.28
2018-11-21T01:00:10.525Z,143306.41
2018-11-21T01:02:39.603Z,143287.77
2018-11-21T01:05:08.742Z,143209.45
2018-11-21T01:07:37.831Z,143231.81
2018-11-21T01:10:06.687Z,143250.47
2018-11-21T01:12:35.710Z,143274.09
2018-11-21T01:15:04.676Z,143243.03
2018-11-21T01:17:33.861Z,143248.00
2018-11-21T01:20:02.922Z,143274.09
2018-11-21T01:22:32.024Z,143241.77
2018-11-21T01:25:01.047Z,143239.25
2018-11-21T01:27:29.916Z,143251.72
2018-11-21T01:29:58.830Z,143230.56
2018-11-21T01:32:27.877Z,143190.81
2018-11-21T01:34:56.928Z,143210.72
2018-11-21T01:37:27.986Z,143220.61
2018-11-21T01:39:55.128Z,143155.98
2018-11-21T01:42:24.219Z,143199.50
2018-11-21T01:44:53.322Z,143168.45
2018-11-21T01:47:22.313Z,143188.30
2018-11-21T01:49:51.419Z,143172.16
2018-11-21T01:52:20.543Z,143183.33
2018-11-21T01:54:49.421Z,143170.91
2018-11-21T01:57:18.319Z,143144.78
2018-11-21T01:59:47.246Z,143184.58
2018-11-21T02:02:16.167Z,143218.14
2018-11-21T02:04:45.271Z,143188.30
2018-11-21T02:07:14.320Z,143183.33
2018-11-21T02:09:43.520Z,143206.94
2018-11-21T02:12:12.535Z,143215.62
2018-11-21T02:14:41.598Z,143206.94
2018-11-21T02:17:10.784Z,143195.78
2018-11-21T02:19:39.970Z,143188.30
2018-11-21T02:22:09.237Z,143206.94
2018-11-21T02:24:38.104Z,143213.17
2018-11-21T02:27:07.129Z,143183.33
2018-11-21T02:29:36.288Z,143179.61
2018-11-21T02:32:05.408Z,143177.14
2018-11-21T02:34:34.319Z,143139.81
2018-11-21T02:37:03.412Z,143153.53
2018-11-21T02:39:32.404Z,143175.88
2018-11-21T02:42:01.426Z,143188.30
2018-11-21T02:44:30.564Z,143182.11
2018-11-21T02:46:59.582Z,143184.58
2018-11-21T02:49:28.598Z,143172.16
2018-11-21T02:51:57.739Z,143183.33
2018-11-21T02:54:26.676Z,143172.16
2018-11-21T02:57:21.656Z,143172.16
2018-11-21T02:59:52.361Z,143180.86
2018-11-21T03:02:21.423Z,143158.50
2018-11-21T03:04:50.510Z,143175.88
2018-11-21T03:07:19.718Z,143182.11
2018-11-21T03:09:48.740Z,143149.81
2018-11-21T03:12:17.876Z,143158.50
2018-11-21T03:14:46.786Z,143152.27
2018-11-21T03:17:15.925Z,143168.45
2018-11-21T03:19:45.076Z,143180.86
2018-11-21T03:22:14.179Z,143163.47
2018-11-21T03:24:43.264Z,143144.78
2018-11-21T03:27:12.264Z,143163.47
2018-11-21T03:29:41.305Z,143154.73
2018-11-21T03:32:10.374Z,143155.98
2018-11-21T03:34:39.450Z,143149.81
2018-11-21T03:37:08.602Z,143160.97
2018-11-21T03:39:37.400Z,143183.33
2018-11-21T03:42:06.939Z,143163.47
2018-11-21T03:44:35.831Z,143164.69
2018-11-21T03:47:04.921Z,143123.63
2018-11-21T03:49:34.108Z,143132.33
2018-11-21T03:52:03.069Z,143111.22
2018-11-21T03:54:32.116Z,143139.81
2018-11-21T03:57:01.274Z,143160.97
2018-11-21T03:59:30.151Z,143152.27
2018-11-21T04:01:58.970Z,143118.66
2018-11-21T04:04:27.835Z,143142.27
2018-11-21T04:06:56.692Z,143123.63
2018-11-21T04:09:25.636Z,143137.30
2018-11-21T04:11:54.613Z,143138.56
2018-11-21T04:14:23.465Z,143133.58
2018-11-21T04:16:52.316Z,143143.53
2018-11-21T04:19:21.213Z,143128.61
2018-11-21T04:21:50.054Z,143142.27
2018-11-21T04:24:18.910Z,143123.63
2018-11-21T04:26:47.771Z,143096.31
2018-11-21T04:29:16.635Z,143106.25
2018-11-21T04:31:45.493Z,143131.06
2018-11-21T04:34:14.420Z,143111.22
2018-11-21T04:36:43.296Z,143146.00
2018-11-21T04:39:12.820Z,143170.91
2018-11-21T04:41:41.729Z,143165.94
2018-11-21T04:44:10.773Z,143142.27
2018-11-21T04:46:39.660Z,143107.50
2018-11-21T04:49:08.596Z,143118.66
2018-11-21T04:51:37.454Z,143113.69
2018-11-21T04:54:06.692Z,143137.30
2018-11-21T04:56:35.818Z,143123.63
2018-11-21T04:59:04.932Z,143137.30
2018-11-21T05:01:33.804Z,143128.61
2018-11-21T05:04:02.769Z,143146.00
2018-11-21T05:06:31.805Z,143143.53
2018-11-21T05:09:00.921Z,143139.81
2018-11-21T05:11:30.092Z,143162.22
2018-11-21T05:13:59.100Z,143159.70
2018-11-21T05:16:28.135Z,143143.53
2018-11-21T05:18:56.959Z,143154.73
2018-11-21T05:21:25.816Z,143180.86
2018-11-21T05:23:54.748Z,143165.94
2018-11-21T05:26:23.616Z,143163.47
2018-11-21T05:28:52.645Z,143159.70
2018-11-21T05:31:21.649Z,143185.83
2018-11-21T05:33:50.505Z,143164.69
2018-11-21T05:36:19.384Z,143170.91
2018-11-21T05:38:48.302Z,143158.50
2018-11-21T05:41:17.158Z,143179.61
2018-11-21T05:43:45.988Z,143162.22
2018-11-21T05:46:15.122Z,143155.98
2018-11-21T05:48:43.963Z,143183.33
2018-11-21T05:51:12.900Z,143158.50
2018-11-21T05:53:41.762Z,143194.53
2018-11-21T05:56:10.627Z,143188.30
2018-11-21T05:58:39.609Z,143192.06
2018-11-21T06:01:08.543Z,143182.11
2018-11-21T06:03:37.422Z,143184.58
2018-11-21T06:06:09.881Z,143185.83
2018-11-21T06:08:35.560Z,143190.81
2018-11-21T06:11:04.555Z,143195.78
2018-11-21T06:13:33.536Z,143190.81
2018-11-21T06:16:02.397Z,143210.72
2018-11-21T06:18:31.321Z,143201.97
2018-11-21T06:21:00.248Z,143189.56
2018-11-21T06:23:29.085Z,143192.06
2018-11-21T06:25:58.083Z,143179.61
2018-11-21T06:28:26.948Z,143190.81
2018-11-21T06:30:56.017Z,143218.14
2018-11-21T06:33:25.051Z,143203.22
2018-11-21T06:35:54.144Z,143192.06
2018-11-21T06:38:23.284Z,143208.19
2018-11-21T06:40:52.342Z,143223.12
2018-11-21T06:43:21.313Z,143228.09
2018-11-21T06:45:50.203Z,143210.72
2018-11-21T06:48:19.213Z,143188.30
2018-11-21T06:50:48.255Z,143199.50
2018-11-21T06:53:17.288Z,143190.81
2018-11-21T06:55:46.195Z,143189.56
2018-11-21T06:58:15.344Z,143168.45
2018-11-21T07:00:44.383Z,143170.91
2018-11-21T07:03:13.665Z,143173.37
2018-11-21T07:05:42.739Z,143175.88
2018-11-21T07:08:11.771Z,143147.30
2018-11-21T07:10:40.776Z,143153.53
2018-11-21T07:13:11.246Z,143185.83
2018-11-21T07:15:38.963Z,143187.09
2018-11-21T07:18:08.046Z,143183.33
2018-11-21T07:20:37.089Z,143221.86
2018-11-21T07:23:06.459Z,143201.97
2018-11-21T07:25:35.538Z,143214.44
2018-11-21T07:28:04.662Z,143209.45
2018-11-21T07:30:33.740Z,143241.77
2018-11-21T07:33:02.810Z,143256.69
2018-11-21T07:35:31.859Z,143252.97
2018-11-21T07:38:01.017Z,143256.69
2018-11-21T07:40:30.287Z,143218.14
2018-11-21T07:42:59.327Z,143218.14
2018-11-21T07:45:28.415Z,143261.67
2018-11-21T07:47:57.409Z,143264.13
2018-11-21T07:50:26.410Z,143246.75
2018-11-21T07:52:55.517Z,143239.25
2018-11-21T07:55:24.690Z,143257.91
2018-11-21T07:57:55.323Z,143260.41
2018-11-21T08:00:55.375Z,143243.03
2018-11-21T08:03:25.606Z,143220.61
2018-11-21T08:06:13.717Z,143244.23
2018-11-21T08:08:56.583Z,143272.83
2018-11-21T08:11:44.565Z,143272.83
2018-11-21T08:14:32.527Z,143259.16
2018-11-21T08:17:18.995Z,143290.28
2018-11-21T08:20:05.488Z,143297.72
2018-11-21T08:22:53.471Z,143312.64
2018-11-21T08:25:44.170Z,143267.86
2018-11-21T08:28:21.208Z,143315.11
2018-11-21T08:30:51.415Z,143281.53
2018-11-21T08:33:20.633Z,143282.78
2018-11-21T08:35:49.669Z,143302.69
2018-11-21T08:38:18.766Z,143325.06
2018-11-21T08:40:47.917Z,143330.03
2018-11-21T08:43:16.994Z,143341.25
2018-11-21T08:45:46.284Z,143331.30
2018-11-21T08:48:16.053Z,143318.88
2018-11-21T08:50:45.043Z,143332.56
2018-11-21T08:53:13.947Z,143308.92
2018-11-21T08:55:43.112Z,143313.91
2018-11-21T08:58:12.137Z,143305.16
2018-11-21T09:00:41.127Z,143305.16
2018-11-21T09:03:10.180Z,143311.39
2018-11-21T09:05:39.224Z,143308.92
2018-11-21T09:08:08.662Z,143289.02
2018-11-21T09:10:37.868Z,143330.03
2018-11-21T09:13:06.844Z,143333.77
2018-11-21T09:15:35.906Z,143317.62
2018-11-21T09:18:04.943Z,143306.41
2018-11-21T09:20:34.016Z,143315.11
2018-11-21T09:23:03.014Z,143310.13
2018-11-21T09:25:32.159Z,143320.09
2018-11-21T09:28:01.100Z,143270.38
2018-11-21T09:30:30.193Z,143312.64
2018-11-21T09:32:59.924Z,143327.58
2018-11-21T09:35:28.983Z,143310.13
2018-11-21T09:37:57.989Z,143310.13
2018-11-21T09:40:27.080Z,143271.63
2018-11-21T09:42:56.821Z,143289.02
2018-11-21T09:45:26.259Z,143301.44
2018-11-21T09:47:55.297Z,143294.00
2018-11-21T09:50:26.024Z,143281.53
2018-11-21T09:52:55.084Z,143280.31
2018-11-21T09:55:24.018Z,143298.97
2018-11-21T09:57:53.056Z,143298.97
2018-11-21T10:00:58.403Z,143292.73
2018-11-21T10:03:29.129Z,143277.81
2018-11-21T10:06:04.373Z,143245.48
2018-11-21T10:08:39.821Z,143220.61
2018-11-21T10:11:09.688Z,143236.80
2018-11-21T10:13:38.777Z,143224.38
2018-11-21T10:16:08.441Z,143214.44
2018-11-21T10:18:38.554Z,143226.84
2018-11-21T10:21:09.826Z,143225.59
2018-11-21T10:23:38.799Z,143249.20
2018-11-21T10:26:08.079Z,143249.20
2018-11-21T10:28:37.289Z,143243.03
2018-11-21T10:31:06.508Z,143233.06
2018-11-21T10:33:35.553Z,143228.09
2018-11-21T10:36:04.808Z,143228.09
2018-11-21T10:38:33.911Z,143231.81
2018-11-21T10:41:02.932Z,143216.89
2018-11-21T10:43:32.795Z,143210.72
2018-11-21T10:46:01.905Z,143229.34
2018-11-21T10:48:30.948Z,143208.19
2018-11-21T10:51:00.075Z,143236.80
2018-11-21T10:53:29.115Z,143219.41
2018-11-21T10:55:58.119Z,143206.94
2018-11-21T10:58:27.126Z,143236.80
2018-11-21T11:01:13.688Z,143214.44
2018-11-21T11:04:01.572Z,143245.48
2018-11-21T11:06:49.527Z,143228.09
2018-11-21T11:09:36.320Z,143218.14
2018-11-21T11:12:24.284Z,143245.48
2018-11-21T11:15:10.743Z,143184.58
2018-11-21T11:18:04.433Z,143206.94
2018-11-21T11:20:58.489Z,143215.62
2018-11-21T11:23:44.917Z,143209.45
2018-11-21T11:26:35.654Z,143239.25
2018-11-21T11:29:32.158Z,143215.62
2018-11-21T11:32:18.760Z,143188.30
2018-11-21T11:35:05.423Z,143208.19
2018-11-21T11:37:51.994Z,143188.30
2018-11-21T11:40:55.255Z,143189.56
2018-11-21T11:43:41.835Z,143167.19
2018-11-21T11:46:28.720Z,143188.30
2018-11-21T11:49:13.867Z,143183.33
2018-11-21T11:52:10.357Z,143188.30
2018-11-21T11:54:50.065Z,143165.94
2018-11-21T11:57:43.948Z,143182.11
2018-11-21T12:00:30.561Z,143158.50
2018-11-21T12:03:17.260Z,143168.45
2018-11-21T12:06:03.987Z,143194.53
2018-11-21T12:08:50.788Z,143192.06
2018-11-21T12:11:37.530Z,143215.62
2018-11-21T12:14:24.520Z,143195.78
2018-11-21T12:17:11.425Z,143218.14
2018-11-21T12:19:53.370Z,143233.06
2018-11-21T12:22:57.221Z,143218.14
2018-11-21T12:25:52.950Z,143193.28
2018-11-21T12:28:44.183Z,143200.77
2018-11-21T12:31:30.783Z,143256.69
2018-11-21T12:34:17.687Z,143259.16
2018-11-21T12:37:05.601Z,143225.59
2018-11-21T12:39:53.972Z,143257.91
2018-11-21T12:43:06.082Z,143228.09
2018-11-21T12:45:59.192Z,143245.48
2018-11-21T12:48:45.757Z,143266.66
2018-11-21T12:51:47.376Z,143272.83
2018-11-21T12:54:30.988Z,143226.84
2018-11-21T12:57:30.728Z,143276.59
2018-11-21T13:00:42.002Z,143239.25
2018-11-21T13:03:28.630Z,143204.48
2018-11-21T13:06:10.259Z,143251.72
2018-11-21T13:09:58.939Z,143245.48
2018-11-21T13:11:38.643Z,143250.47
2018-11-21T13:14:33.037Z,143233.06
2018-11-21T13:17:23.928Z,143233.06
2018-11-21T13:20:21.592Z,143226.84
2018-11-21T13:23:12.339Z,143223.12
2018-11-21T13:25:49.633Z,143218.14
2018-11-21T13:28:52.784Z,143218.14
2018-11-21T13:31:56.392Z,143219.41
2018-11-21T13:34:43.178Z,143188.30
2018-11-21T13:37:33.998Z,143153.53
2018-11-21T13:40:20.719Z,143204.48
2018-11-21T13:43:07.419Z,143188.30
2018-11-21T13:45:55.374Z,143218.14
2018-11-21T13:48:40.870Z,143218.14
2018-11-21T13:51:29.092Z,143238.05
2018-11-21T13:54:16.658Z,143251.72
2018-11-21T13:56:46.650Z,143214.44
2018-11-21T13:59:15.597Z,143190.81
2018-11-21T14:01:44.992Z,143204.48
2018-11-21T14:04:13.998Z,143187.09
2018-11-21T14:06:43.103Z,143184.58
2018-11-21T14:09:13.754Z,143187.09
2018-11-21T14:11:42.911Z,143144.78
2018-11-21T14:14:11.922Z,143175.88
2018-11-21T14:16:41.235Z,143146.00
2018-11-21T14:19:10.330Z,143138.56
2018-11-21T14:21:39.418Z,143114.94
2018-11-21T14:24:08.574Z,143170.91
2018-11-21T14:26:37.770Z,143163.47
2018-11-21T14:29:06.879Z,143153.53
2018-11-21T14:31:35.959Z,143170.91
2018-11-21T14:34:04.999Z,143164.69
2018-11-21T14:36:34.047Z,143185.83
2018-11-21T14:39:03.128Z,143182.11
2018-11-21T14:41:32.245Z,143180.86
2018-11-21T14:44:01.235Z,143208.19
2018-11-21T14:46:30.422Z,143183.33
2018-11-21T14:48:59.707Z,143213.17
2018-11-21T14:51:28.775Z,143224.38
2018-11-21T14:53:57.968Z,143221.86
2018-11-21T14:56:29.374Z,143188.30
2018-11-21T14:58:56.060Z,143149.81
2018-11-21T15:01:25.209Z,143163.47
2018-11-21T15:03:54.177Z,143164.69
2018-11-21T15:06:23.211Z,143153.53
2018-11-21T15:08:52.244Z,143178.34
2018-11-21T15:11:21.399Z,143168.45
2018-11-21T15:13:50.442Z,143157.25
2018-11-21T15:16:19.753Z,143152.27
2018-11-21T15:18:48.892Z,143128.61
2018-11-21T15:21:18.324Z,143124.89
2018-11-21T15:23:47.326Z,143128.61
2018-11-21T15:26:16.383Z,143147.30
2018-11-21T15:28:45.497Z,143124.89
2018-11-21T15:31:14.563Z,143090.08
2018-11-21T15:33:43.609Z,143083.91
2018-11-21T15:36:12.824Z,143086.36
2018-11-21T15:38:41.958Z,143100.03
2018-11-21T15:41:11.057Z,143088.83
2018-11-21T15:43:39.991Z,143083.91
2018-11-21T15:46:09.546Z,143107.50
2018-11-21T15:48:38.671Z,143093.80
2018-11-21T15:51:07.685Z,143096.31
2018-11-21T15:53:36.737Z,143092.59
2018-11-21T15:56:05.935Z,143080.12
2018-11-21T15:58:35.044Z,143090.08
2018-11-21T16:01:04.130Z,143102.53
2018-11-21T16:03:33.116Z,143096.31
2018-11-21T16:06:02.263Z,143085.09
2018-11-21T16:08:31.330Z,143093.80
2018-11-21T16:11:00.411Z,143081.39
2018-11-21T16:13:29.463Z,143096.31
2018-11-21T16:15:58.762Z,143087.61
2018-11-21T16:18:28.246Z,143085.09
2018-11-21T16:20:57.162Z,143087.61
2018-11-21T16:23:26.318Z,143118.66
2018-11-21T16:25:55.346Z,143121.17
2018-11-21T16:28:24.438Z,143111.22
2018-11-21T16:30:53.660Z,143103.75
2018-11-21T16:33:22.725Z,143116.20
2018-11-21T16:35:51.900Z,143093.80
2018-11-21T16:38:20.978Z,143091.33
2018-11-21T16:40:50.086Z,143092.59
2018-11-21T16:43:19.110Z,143126.14
2018-11-21T16:45:50.445Z,143081.39
